Time;durP1;ratioP1;P1;durP2;ratioP2;P2;SDS_P1;SDS_P2;PMS_P1;PMS_P2;Temp;Humidity;BMP_temperature;BMP_pressure;BME280_temperature;BME280_humidity;BME280_pressure;Samples;Min_cycle;Max_cycle;Signal;HPM_P1;HPM_P2
2023/06/03 04:02:49;;;;;;;0.60;0.10;;;13.20;1.00;;;;;;4996638;23;20500;-74
2023/06/03 04:05:17;;;;;;;0.60;0.10;;;13.00;1.00;;;;;;4938560;29;20461;-75
2023/06/03 04:07:48;;;;;;;0.80;0.20;;;12.90;1.00;;;;;;4937721;29;20544;-75
2023/06/03 04:10:20;;;;;;;0.60;0.10;;;12.90;1.00;;;;;;4940229;29;20526;-75
2023/06/03 04:12:51;;;;;;;0.90;0.20;;;12.90;1.00;;;;;;4956877;28;20540;-76
2023/06/03 04:15:24;;;;;;;5.33;0.77;;;12.90;1.00;;;;;;4957386;29;20475;-76
2023/06/03 04:17:55;;;;;;;0.60;0.20;;;12.90;1.00;;;;;;4957017;29;20482;-75
2023/06/03 04:20:40;;;;;;;0.60;0.13;;;12.90;1.00;;;;;;4957089;29;20447;-77
2023/06/03 04:23:15;;;;;;;0.63;0.20;;;12.90;1.00;;;;;;4956471;29;20908;-74
2023/06/03 04:25:43;;;;;;;0.60;0.10;;;12.90;1.00;;;;;;4957055;29;20535;-75
2023/06/03 04:28:11;;;;;;;0.60;0.10;;;12.90;1.00;;;;;;4956742;29;20457;-76
2023/06/03 04:30:39;;;;;;;0.60;0.20;;;13.00;1.00;;;;;;4956520;28;20448;-74
2023/06/03 04:33:09;;;;;;;0.60;0.10;;;13.00;1.00;;;;;;4956971;29;20436;-75
2023/06/03 04:35:36;;;;;;;0.60;0.20;;;12.90;1.00;;;;;;4957650;29;20462;-74
2023/06/03 04:38:04;;;;;;;0.60;0.10;;;12.90;1.00;;;;;;4957644;29;20548;-75
2023/06/03 04:40:33;;;;;;;0.60;0.20;;;12.90;1.00;;;;;;4957913;28;20539;-75
2023/06/03 04:43:03;;;;;;;0.60;0.10;;;12.90;1.00;;;;;;4968558;29;20503;-75
2023/06/03 04:45:32;;;;;;;0.60;0.10;;;13.00;1.00;;;;;;4968243;29;20443;-75
2023/06/03 04:48:01;;;;;;;0.60;0.10;;;13.00;1.00;;;;;;4957508;29;20448;-74
2023/06/03 04:50:34;;;;;;;0.60;0.20;;;13.00;1.00;;;;;;4957175;28;20489;-76
2023/06/03 04:53:02;;;;;;;0.60;0.10;;;13.10;1.00;;;;;;4955910;28;20534;-74
2023/06/03 04:55:31;;;;;;;0.60;0.10;;;13.00;1.00;;;;;;4957153;29;20895;-73
2023/06/03 04:58:00;;;;;;;0.60;0.10;;;13.00;1.00;;;;;;4956741;29;20998;-76
2023/06/03 05:00:28;;;;;;;0.60;0.10;;;13.20;1.00;;;;;;4959598;28;20510;-74
2023/06/03 05:02:56;;;;;;;0.97;0.73;;;13.10;1.00;;;;;;4960503;29;20879;-74
2023/06/03 05:05:25;;;;;;;0.60;0.10;;;13.10;1.00;;;;;;4959776;29;20494;-74
2023/06/03 05:07:54;;;;;;;0.60;0.10;;;13.10;1.00;;;;;;4956902;29;20452;-74
2023/06/03 05:10:22;;;;;;;0.60;0.10;;;13.20;1.00;;;;;;4956365;29;20451;-74
2023/06/03 05:12:50;;;;;;;5.43;2.83;;;13.20;1.00;;;;;;4957046;29;20480;-76
2023/06/03 05:15:19;;;;;;;0.60;0.20;;;13.20;1.00;;;;;;4957426;29;20921;-74
2023/06/03 05:17:46;;;;;;;0.60;0.10;;;13.20;1.00;;;;;;4957071;29;20954;-74
2023/06/03 05:20:15;;;;;;;0.60;0.20;;;13.30;1.00;;;;;;4958222;29;20451;-76
2023/06/03 05:22:42;;;;;;;0.60;0.10;;;13.30;1.00;;;;;;4957256;29;20469;-76
2023/06/03 05:25:12;;;;;;;0.63;0.27;;;13.40;1.00;;;;;;4953507;29;20498;-77
2023/06/03 05:27:40;;;;;;;1.80;1.40;;;13.40;1.00;;;;;;4956368;29;20492;-74
2023/06/03 05:30:15;;;;;;;0.60;0.20;;;13.40;1.00;;;;;;4956040;29;20526;-74
2023/06/03 05:32:43;;;;;;;0.60;0.20;;;13.40;1.00;;;;;;4955776;28;21059;-75
2023/06/03 05:35:11;;;;;;;0.60;0.30;;;13.50;1.00;;;;;;4956157;29;21007;-75
2023/06/03 05:37:38;;;;;;;1.00;0.90;;;13.60;1.00;;;;;;4955416;29;20551;-75
2023/06/03 05:40:08;;;;;;;0.60;0.23;;;13.60;1.00;;;;;;4955564;29;20848;-75
2023/06/03 05:42:37;;;;;;;0.60;0.20;;;13.70;1.00;;;;;;4955287;28;20882;-74
2023/06/03 05:45:06;;;;;;;0.60;0.10;;;13.70;1.00;;;;;;4952380;29;20575;-76
2023/06/03 05:47:34;;;;;;;0.60;0.10;;;13.70;1.00;;;;;;4943401;29;20550;-75
2023/06/03 05:50:02;;;;;;;1.73;0.40;;;13.70;1.00;;;;;;4954840;29;20461;-75
2023/06/03 05:52:29;;;;;;;0.60;0.20;;;13.70;1.00;;;;;;4954938;29;21097;-75
2023/06/03 05:54:57;;;;;;;1.03;0.43;;;13.70;1.00;;;;;;4954708;29;20484;-74
2023/06/03 05:57:25;;;;;;;0.60;0.10;;;13.70;1.00;;;;;;4956130;29;20465;-76
2023/06/03 05:59:55;;;;;;;0.60;0.10;;;13.80;1.00;;;;;;4955895;29;20869;-74
2023/06/03 06:02:22;;;;;;;0.70;0.40;;;13.90;1.00;;;;;;4947036;29;20557;-75
2023/06/03 06:04:50;;;;;;;0.70;0.20;;;13.90;1.00;;;;;;4955062;28;20490;-75
2023/06/03 06:07:18;;;;;;;0.60;0.20;;;14.00;1.00;;;;;;4954990;29;20459;-75
2023/06/03 06:09:46;;;;;;;0.60;0.13;;;14.00;1.00;;;;;;4947049;29;20471;-75
2023/06/03 06:12:14;;;;;;;0.60;0.10;;;14.10;1.00;;;;;;4953501;29;20931;-75
2023/06/03 06:14:42;;;;;;;0.60;0.10;;;14.20;1.00;;;;;;4955352;29;21016;-75
2023/06/03 06:17:16;;;;;;;0.60;0.10;;;14.20;1.00;;;;;;4955132;29;20522;-76
2023/06/03 06:19:44;;;;;;;1.63;0.60;;;14.20;1.00;;;;;;4956054;29;20530;-74
2023/06/03 06:22:12;;;;;;;0.60;0.10;;;14.40;1.00;;;;;;4955297;29;21030;-75
2023/06/03 06:24:39;;;;;;;0.60;0.10;;;14.50;1.00;;;;;;4959346;29;20489;-74
2023/06/03 06:27:08;;;;;;;0.60;0.37;;;14.60;1.00;;;;;;4961560;29;20453;-74
2023/06/03 06:29:36;;;;;;;0.80;0.37;;;14.70;1.00;;;;;;4959942;29;20487;-76
2023/06/03 06:32:04;;;;;;;0.60;0.10;;;14.70;1.00;;;;;;4959242;29;20459;-76
2023/06/03 06:34:35;;;;;;;0.60;0.10;;;14.70;1.00;;;;;;4958436;29;20751;-75
2023/06/03 06:37:03;;;;;;;0.60;0.10;;;14.80;1.00;;;;;;4957610;29;20471;-76
2023/06/03 06:39:50;;;;;;;0.60;0.10;;;14.70;1.00;;;;;;4957187;29;20459;-75
2023/06/03 06:42:30;;;;;;;0.60;0.20;;;14.60;1.00;;;;;;4954535;28;20481;-75
2023/06/03 06:44:59;;;;;;;0.60;0.20;;;14.60;1.00;;;;;;4955504;29;20496;-76
2023/06/03 06:47:28;;;;;;;0.60;0.20;;;14.70;1.00;;;;;;4961429;29;20542;-75
2023/06/03 06:49:58;;;;;;;0.60;0.10;;;14.70;1.00;;;;;;4964984;28;20439;-75
2023/06/03 06:52:26;;;;;;;0.60;0.10;;;14.80;1.00;;;;;;4959106;29;20486;-75
2023/06/03 06:54:55;;;;;;;0.60;0.20;;;14.90;1.00;;;;;;4955177;29;20454;-75
2023/06/03 06:57:24;;;;;;;0.60;0.17;;;14.90;1.00;;;;;;4961673;28;20546;-74
2023/06/03 06:59:53;;;;;;;0.87;0.87;;;14.90;1.00;;;;;;4976761;28;20545;-76
2023/06/03 07:02:21;;;;;;;0.60;0.23;;;;;;;;;;4968936;28;20576;-76
2023/06/03 07:04:50;;;;;;;0.90;0.50;;;15.10;1.00;;;;;;4956059;29;20519;-76
2023/06/03 07:07:19;;;;;;;0.60;0.10;;;15.20;1.00;;;;;;4955643;29;20930;-75
2023/06/03 07:09:47;;;;;;;0.60;0.20;;;15.40;1.00;;;;;;4955009;29;20755;-75
2023/06/03 07:12:15;;;;;;;0.60;0.10;;;15.40;1.00;;;;;;4940926;29;20478;-75
2023/06/03 07:14:43;;;;;;;0.60;0.20;;;15.40;1.00;;;;;;4953935;29;20954;-75
2023/06/03 07:17:11;;;;;;;1.03;1.03;;;15.50;1.00;;;;;;4955965;28;20451;-76
2023/06/03 07:19:39;;;;;;;0.60;0.20;;;15.50;1.00;;;;;;4957919;29;20490;-75
2023/06/03 07:22:07;;;;;;;0.93;0.60;;;15.70;1.00;;;;;;4958251;29;20509;-73
2023/06/03 07:24:37;;;;;;;0.60;0.10;;;15.80;1.00;;;;;;4954974;29;20476;-72
2023/06/03 07:27:07;;;;;;;0.60;0.20;;;16.00;1.00;;;;;;4956654;29;20490;-72
2023/06/03 07:29:38;;;;;;;0.60;0.10;;;16.20;1.00;;;;;;4938445;29;20451;-72
2023/06/03 07:32:08;;;;;;;0.60;0.10;;;16.50;1.00;;;;;;4937918;29;20470;-73
2023/06/03 07:34:37;;;;;;;0.60;0.10;;;16.60;1.00;;;;;;4937965;29;20541;-72
2023/06/03 07:37:10;;;;;;;0.60;0.10;;;16.80;1.00;;;;;;4949754;29;20914;-72
2023/06/03 07:39:42;;;;;;;0.90;0.40;;;16.90;1.00;;;;;;4962739;29;20515;-73
2023/06/03 07:42:20;;;;;;;0.60;0.10;;;17.00;1.00;;;;;;4960101;29;20464;-73
2023/06/03 07:44:49;;;;;;;0.60;0.17;;;17.00;1.00;;;;;;4960496;29;20854;-73
2023/06/03 07:47:18;;;;;;;0.60;0.20;;;17.10;1.00;;;;;;4958826;29;20471;-72
2023/06/03 07:49:48;;;;;;;0.60;0.30;;;17.20;1.00;;;;;;4954662;29;20497;-75
2023/06/03 07:52:18;;;;;;;1.20;0.53;;;17.20;1.00;;;;;;4959296;29;20467;-72
2023/06/03 07:54:47;;;;;;;0.60;0.23;;;17.30;1.00;;;;;;4956531;29;20461;-73
2023/06/03 07:57:16;;;;;;;0.60;0.20;;;17.30;1.00;;;;;;4957594;29;20448;-73
2023/06/03 07:59:51;;;;;;;0.60;0.20;;;17.40;1.00;;;;;;4957516;29;20448;-73
2023/06/03 08:02:19;;;;;;;0.70;0.30;;;17.40;1.00;;;;;;4957715;29;20513;-73
2023/06/03 08:04:47;;;;;;;0.60;0.13;;;17.40;1.00;;;;;;4957078;29;20462;-73
2023/06/03 08:07:17;;;;;;;0.70;0.20;;;17.40;1.00;;;;;;4957337;29;20706;-72
2023/06/03 08:09:45;;;;;;;0.60;0.20;;;17.40;1.00;;;;;;4956404;29;20453;-73
2023/06/03 08:12:14;;;;;;;0.60;0.10;;;17.60;1.00;;;;;;4956221;28;20512;-72
2023/06/03 08:14:42;;;;;;;12.13;3.23;;;17.60;1.00;;;;;;4958690;29;20947;-72
2023/06/03 08:17:12;;;;;;;1.27;0.83;;;17.80;1.00;;;;;;4957035;29;20850;-73
2023/06/03 08:19:40;;;;;;;0.60;0.20;;;17.80;1.00;;;;;;4956228;29;20512;-73
2023/06/03 08:22:32;;;;;;;0.70;0.40;;;17.90;1.00;;;;;;4949811;28;20561;-73
2023/06/03 08:25:00;;;;;;;0.60;0.10;;;18.10;1.00;;;;;;4956752;29;20880;-74
2023/06/03 08:27:31;;;;;;;0.60;0.20;;;18.10;1.00;;;;;;4955854;28;20437;-72
2023/06/03 08:30:03;;;;;;;0.60;0.10;;;18.20;1.00;;;;;;4956732;29;20453;-72
2023/06/03 08:32:33;;;;;;;0.60;0.20;;;18.30;1.00;;;;;;4958460;28;20474;-72
2023/06/03 08:35:01;;;;;;;0.87;0.83;;;18.40;1.00;;;;;;4958681;29;20536;-73
2023/06/03 08:37:30;;;;;;;0.80;0.50;;;18.50;1.00;;;;;;4959790;29;20506;-73
2023/06/03 08:39:58;;;;;;;0.60;0.20;;;18.50;1.00;;;;;;4956689;29;20985;-77
2023/06/03 08:42:38;;;;;;;1.40;1.13;;;18.60;1.00;;;;;;4957635;29;20501;-76
2023/06/03 08:45:08;;;;;;;0.60;0.20;;;18.60;1.00;;;;;;4953279;29;20545;-76
2023/06/03 08:47:42;;;;;;;0.60;0.20;;;18.60;1.00;;;;;;4953834;28;20458;-75
2023/06/03 08:50:12;;;;;;;0.70;0.40;;;18.60;1.00;;;;;;4957743;29;20442;-77
2023/06/03 08:52:40;;;;;;;0.60;0.10;;;18.60;1.00;;;;;;4956660;29;20904;-75
2023/06/03 08:55:12;;;;;;;3.63;0.57;;;18.60;1.00;;;;;;4956865;29;20937;-75
2023/06/03 08:57:49;;;;;;;0.80;0.53;;;18.60;1.00;;;;;;4955743;29;20910;-75
2023/06/03 09:00:23;;;;;;;2.07;1.90;;;18.70;1.00;;;;;;4955354;29;20496;-77
2023/06/03 09:02:51;;;;;;;0.60;0.10;;;18.60;1.00;;;;;;4956169;28;20482;-77
2023/06/03 09:05:20;;;;;;;0.60;0.10;;;18.70;1.00;;;;;;4961023;29;20452;-76
2023/06/03 09:07:49;;;;;;;0.60;0.10;;;18.70;1.00;;;;;;4960046;29;20450;-74
2023/06/03 09:10:20;;;;;;;1.53;1.03;;;18.80;1.00;;;;;;4958940;29;20460;-75
2023/06/03 09:12:50;;;;;;;0.63;0.20;;;18.90;1.00;;;;;;4959199;28;20557;-74
2023/06/03 09:15:18;;;;;;;0.60;0.20;;;19.10;1.00;;;;;;4957292;29;20435;-73
2023/06/03 09:17:46;;;;;;;1.00;0.63;;;;;;;;;;4958860;29;20546;-75
2023/06/03 09:20:15;;;;;;;0.60;0.20;;;19.30;1.00;;;;;;4959352;29;20447;-75
2023/06/03 09:22:46;;;;;;;4.97;0.60;;;19.40;1.00;;;;;;4956392;28;20477;-74
2023/06/03 09:25:14;;;;;;;0.60;0.10;;;19.50;1.00;;;;;;4956842;29;20460;-74
2023/06/03 09:27:42;;;;;;;1.37;1.07;;;19.50;1.00;;;;;;4955904;29;20597;-75
2023/06/03 09:30:12;;;;;;;0.60;0.10;;;19.60;1.00;;;;;;4952065;29;20518;-76
2023/06/03 09:32:42;;;;;;;0.60;0.20;;;19.60;1.00;;;;;;4955101;28;20548;-75
2023/06/03 09:35:11;;;;;;;0.60;0.20;;;19.60;1.00;;;;;;4946719;29;20470;-77
2023/06/03 09:37:38;;;;;;;1.17;0.57;;;19.70;1.00;;;;;;4947631;29;20487;-77
2023/06/03 09:40:25;;;;;;;0.60;0.10;;;19.70;1.00;;;;;;4955963;28;20458;-74
2023/06/03 09:42:53;;;;;;;0.80;0.60;;;19.80;1.00;;;;;;4946397;29;20546;-75
2023/06/03 09:45:28;;;;;;;23.53;7.30;;;19.90;1.00;;;;;;4957422;28;20446;-75
2023/06/03 09:47:57;;;;;;;0.60;0.13;;;20.10;1.00;;;;;;4959285;28;20572;-75
2023/06/03 09:50:26;;;;;;;1.90;0.40;;;20.00;1.00;;;;;;4957223;28;20449;-76
2023/06/03 09:52:54;;;;;;;0.60;0.20;;;20.10;1.00;;;;;;4959861;28;20560;-76
2023/06/03 09:55:29;;;;;;;0.70;0.20;;;20.20;1.00;;;;;;4956142;28;20533;-75
2023/06/03 09:58:09;;;;;;;0.60;0.10;;;20.30;1.00;;;;;;4970378;28;20789;-75
2023/06/03 10:00:48;;;;;;;0.60;0.23;;;20.30;1.00;;;;;;4945807;29;20885;-76
2023/06/03 10:03:19;;;;;;;0.60;0.10;;;20.30;1.00;;;;;;4937893;29;20444;-76
2023/06/03 10:05:48;;;;;;;0.70;0.40;;;21.10;1.00;;;;;;4939097;29;20444;-77
2023/06/03 10:08:28;;;;;;;0.70;0.23;;;20.50;1.00;;;;;;4950805;29;20483;-80
2023/06/03 10:10:57;;;;;;;0.60;0.10;;;20.50;1.00;;;;;;4952422;28;20498;-76
2023/06/03 10:13:25;;;;;;;3.27;0.73;;;20.60;1.00;;;;;;5089507;23;21631;-76
2023/06/03 10:15:58;;;;;;;0.60;0.10;;;20.80;1.00;;;;;;4932842;29;20467;-75
2023/06/03 10:18:38;;;;;;;0.60;0.20;;;20.80;1.00;;;;;;4928508;29;20482;-76
2023/06/03 10:21:08;;;;;;;1.57;0.97;;;20.70;1.00;;;;;;4945401;29;20486;-75
2023/06/03 10:23:38;;;;;;;0.70;0.40;;;20.60;1.00;;;;;;4917410;29;21015;-76
2023/06/03 10:26:07;;;;;;;0.70;0.40;;;20.50;1.00;;;;;;4921376;29;20479;-76
2023/06/03 10:28:36;;;;;;;0.60;0.27;;;20.60;1.00;;;;;;4932228;29;20463;-77
2023/06/03 10:31:07;;;;;;;0.60;0.20;;;20.60;1.00;;;;;;4933141;29;20480;-78
2023/06/03 10:33:37;;;;;;;0.60;0.20;;;20.90;1.00;;;;;;4929093;29;20479;-78
2023/06/03 10:36:07;;;;;;;0.60;0.20;;;21.10;1.00;;;;;;4937446;29;20936;-79
2023/06/03 10:38:37;;;;;;;0.60;0.10;;;21.20;1.00;;;;;;4937254;29;20455;-77
2023/06/03 10:41:05;;;;;;;0.70;0.30;;;21.30;1.00;;;;;;4929189;29;20469;-79
2023/06/03 10:43:35;;;;;;;0.60;0.20;;;21.30;1.00;;;;;;4937208;29;20476;-78
2023/06/03 10:46:05;;;;;;;0.60;0.10;;;21.30;1.00;;;;;;4935110;29;20472;-79
2023/06/03 10:48:35;;;;;;;0.60;0.10;;;21.30;1.00;;;;;;4931400;29;20455;-79
2023/06/03 10:51:13;;;;;;;0.60;0.10;;;21.40;1.00;;;;;;4936093;29;20486;-78
2023/06/03 10:53:52;;;;;;;0.60;0.10;;;21.60;1.00;;;;;;4918278;29;20475;-80
2023/06/03 10:56:32;;;;;;;0.60;0.20;;;21.80;1.00;;;;;;4935909;29;20955;-77
2023/06/03 10:59:03;;;;;;;0.77;0.30;;;21.80;1.00;;;;;;4937326;29;20507;-78
2023/06/03 11:01:58;;;;;;;0.60;0.10;;;22.00;1.00;;;;;;4938326;29;20479;-77
2023/06/03 11:04:28;;;;;;;2.70;1.90;;;22.30;1.00;;;;;;4933833;29;20482;-79
2023/06/03 11:06:56;;;;;;;0.60;0.20;;;22.40;1.00;;;;;;4955965;29;20509;-80
2023/06/03 11:09:32;;;;;;;0.80;0.40;;;22.20;1.00;;;;;;4944952;29;20473;-76
2023/06/03 11:12:12;;;;;;;0.67;0.10;;;22.10;1.00;;;;;;4937705;29;20452;-76
2023/06/03 11:14:56;;;;;;;0.70;0.20;;;22.20;1.00;;;;;;4940685;29;20493;-78
2023/06/03 11:17:27;;;;;;;0.90;0.70;;;22.00;1.00;;;;;;4948881;29;20439;-79
2023/06/03 11:19:57;;;;;;;0.70;0.27;;;21.80;1.00;;;;;;4949313;29;20476;-79
2023/06/03 11:22:42;;;;;;;0.70;0.20;;;21.90;1.00;;;;;;4929009;29;20513;-78
2023/06/03 11:25:27;;;;;;;0.80;0.50;;;21.90;1.00;;;;;;4935202;29;20535;-78
2023/06/03 11:28:35;;;;;;;0.60;0.20;;;22.20;1.00;;;;;;4925529;29;20520;-80
2023/06/03 11:31:06;;;;;;;0.60;0.20;;;22.40;1.00;;;;;;4936958;29;20524;-78
2023/06/03 11:33:36;;;;;;;0.70;0.20;;;22.40;1.00;;;;;;4936037;29;20482;-78
2023/06/03 11:36:40;;;;;;;0.60;0.20;;;22.30;1.00;;;;;;4934829;29;20471;-79
2023/06/03 11:39:09;;;;;;;4.63;1.43;;;;;;;;;;4924776;29;20591;-77
2023/06/03 11:42:02;;;;;;;0.67;0.20;;;22.20;1.00;;;;;;4937421;29;20452;-78
2023/06/03 11:44:31;;;;;;;0.60;0.20;;;22.20;1.00;;;;;;4937463;29;20474;-79
2023/06/03 11:47:02;;;;;;;0.60;0.10;;;22.30;1.00;;;;;;4921172;29;20488;-78
2023/06/03 11:49:34;;;;;;;0.60;0.20;;;22.30;1.00;;;;;;4918444;29;21142;-78
2023/06/03 11:52:03;;;;;;;0.60;0.20;;;22.30;1.00;;;;;;4918020;29;20500;-77
2023/06/03 11:54:31;;;;;;;0.60;0.10;;;22.40;1.00;;;;;;4918433;29;20552;-77
2023/06/03 11:56:59;;;;;;;0.90;0.40;;;22.40;1.00;;;;;;4936384;29;20526;-76
2023/06/03 11:59:32;;;;;;;0.60;0.17;;;22.40;1.00;;;;;;4937015;29;20504;-79
2023/06/03 12:02:01;;;;;;;0.90;0.30;;;22.20;1.00;;;;;;4936351;29;20543;-78
2023/06/03 12:04:30;;;;;;;0.73;0.30;;;22.20;1.00;;;;;;4939062;29;20476;-77
2023/06/03 12:07:01;;;;;;;0.60;0.20;;;22.20;1.00;;;;;;4943226;29;20497;-76
2023/06/03 12:09:30;;;;;;;0.60;0.10;;;22.20;1.00;;;;;;4933655;29;20499;-77
2023/06/03 12:12:05;;;;;;;0.60;0.20;;;22.20;1.00;;;;;;4936163;29;20456;-76
2023/06/03 12:14:33;;;;;;;0.60;0.20;;;22.20;1.00;;;;;;4938359;29;20479;-75
2023/06/03 12:17:10;;;;;;;0.60;0.10;;;22.10;1.00;;;;;;4938825;29;20511;-76
2023/06/03 12:19:40;;;;;;;0.60;0.20;;;22.00;1.00;;;;;;4938357;29;20462;-76
2023/06/03 12:22:09;;;;;;;0.60;0.10;;;;;;;;;;4940406;29;20512;-75
2023/06/03 12:24:41;;;;;;;0.60;0.10;;;22.10;1.00;;;;;;4939809;29;20476;-76
2023/06/03 12:27:14;;;;;;;1.00;0.53;;;22.10;1.00;;;;;;4938542;29;20445;-77
2023/06/03 12:29:43;;;;;;;0.70;0.20;;;22.20;1.00;;;;;;4939698;29;20483;-76
2023/06/03 12:32:11;;;;;;;0.60;0.10;;;22.40;1.00;;;;;;4939896;29;20803;-76
2023/06/03 12:34:39;;;;;;;0.60;0.20;;;22.40;1.00;;;;;;4939612;29;20571;-77
2023/06/03 12:37:09;;;;;;;0.80;0.80;;;22.50;1.00;;;;;;4938659;29;20453;-75
2023/06/03 12:39:43;;;;;;;0.70;0.30;;;22.70;1.00;;;;;;4936164;29;20469;-77
2023/06/03 12:42:11;;;;;;;0.70;0.20;;;22.80;1.00;;;;;;4938290;29;20446;-75
2023/06/03 12:44:47;;;;;;;0.70;0.10;;;22.90;1.00;;;;;;4938852;29;20516;-76
2023/06/03 12:47:17;;;;;;;0.60;0.20;;;22.80;1.00;;;;;;4937506;29;20500;-74
2023/06/03 12:50:02;;;;;;;0.70;0.30;;;22.90;1.00;;;;;;4938899;29;20477;-76
2023/06/03 12:52:34;;;;;;;0.70;0.20;;;22.90;1.00;;;;;;4939288;29;20638;-77
2023/06/03 12:55:03;;;;;;;0.60;0.10;;;22.80;1.00;;;;;;4938478;29;20468;-77
2023/06/03 12:57:32;;;;;;;0.87;0.60;;;22.80;1.00;;;;;;4928145;29;20947;-76
2023/06/03 13:00:05;;;;;;;0.63;0.13;;;22.90;1.00;;;;;;4935282;29;20454;-78
2023/06/03 13:02:34;;;;;;;0.60;0.10;;;22.80;1.00;;;;;;4935391;29;20461;-75
2023/06/03 13:05:02;;;;;;;0.60;0.20;;;22.80;1.00;;;;;;4937527;29;20469;-77
2023/06/03 13:07:33;;;;;;;0.70;0.20;;;23.00;1.00;;;;;;4936315;29;20865;-75
2023/06/03 13:10:01;;;;;;;0.70;0.17;;;22.90;1.00;;;;;;4938425;29;20540;-76
2023/06/03 13:12:30;;;;;;;0.70;0.20;;;23.00;1.00;;;;;;4938110;29;21044;-77
2023/06/03 13:14:58;;;;;;;0.70;0.20;;;23.10;1.00;;;;;;4936292;29;20567;-75
2023/06/03 13:17:27;;;;;;;0.70;0.20;;;23.20;1.00;;;;;;4937516;29;20462;-77
2023/06/03 13:19:56;;;;;;;0.70;0.20;;;;;;;;;;4937432;29;20454;-77
2023/06/03 13:22:25;;;;;;;0.70;0.20;;;23.50;1.00;;;;;;4929019;29;20809;-75
2023/06/03 13:24:55;;;;;;;0.70;0.20;;;23.40;1.00;;;;;;4935679;29;20479;-75
2023/06/03 13:27:23;;;;;;;0.70;0.10;;;;;;;;;;4933272;29;20496;-75
2023/06/03 13:29:52;;;;;;;0.70;0.13;;;23.40;1.00;;;;;;4928146;29;20490;-75
2023/06/03 13:32:22;;;;;;;0.70;0.10;;;23.40;1.00;;;;;;4928614;29;20446;-75
2023/06/03 13:34:50;;;;;;;0.70;0.20;;;;;;;;;;4937317;29;20468;-75
2023/06/03 13:37:19;;;;;;;0.67;0.10;;;23.30;1.00;;;;;;4932532;29;20464;-75
2023/06/03 13:39:48;;;;;;;0.70;0.20;;;23.30;1.00;;;;;;4940089;29;21173;-75
2023/06/03 13:42:17;;;;;;;0.63;0.10;;;23.30;1.00;;;;;;4920436;29;20496;-74
2023/06/03 13:44:45;;;;;;;0.67;0.20;;;23.40;1.00;;;;;;4936835;29;20555;-75
2023/06/03 13:47:13;;;;;;;0.87;0.40;;;;;;;;;;4936631;29;20535;-75
2023/06/03 13:49:41;;;;;;;0.93;0.20;;;23.30;1.00;;;;;;4936887;29;20548;-74
2023/06/03 13:52:09;;;;;;;0.70;0.10;;;23.30;1.00;;;;;;4949476;29;20461;-75
2023/06/03 13:54:37;;;;;;;0.70;0.20;;;23.40;1.00;;;;;;4956132;28;20468;-75
2023/06/03 13:57:05;;;;;;;0.70;0.20;;;23.50;1.00;;;;;;4944753;29;21081;-75
2023/06/03 13:59:34;;;;;;;0.70;0.10;;;23.70;1.00;;;;;;4942704;29;20460;-74
2023/06/03 14:02:02;;;;;;;0.70;0.20;;;23.90;1.00;;;;;;4953444;29;20750;-74
2023/06/03 14:04:30;;;;;;;0.70;0.20;;;24.00;1.00;;;;;;4944079;29;20557;-75
2023/06/03 14:06:58;;;;;;;0.70;0.20;;;24.10;1.00;;;;;;4935218;29;20497;-71
2023/06/03 14:09:26;;;;;;;0.70;0.20;;;24.10;1.00;;;;;;4936374;29;20916;-75
2023/06/03 14:11:55;;;;;;;0.70;0.20;;;24.10;1.00;;;;;;4936532;29;20501;-75
2023/06/03 14:14:23;;;;;;;0.70;0.20;;;24.20;1.00;;;;;;4935654;29;20481;-76
2023/06/03 14:16:52;;;;;;;0.80;0.40;;;24.20;1.00;;;;;;4936258;29;20458;-74
2023/06/03 14:19:20;;;;;;;0.80;0.30;;;24.20;1.00;;;;;;4935220;29;20536;-75
2023/06/03 14:21:48;;;;;;;0.90;0.40;;;24.20;1.00;;;;;;4935790;29;20541;-75
2023/06/03 14:24:16;;;;;;;0.70;0.10;;;24.20;1.00;;;;;;4937043;29;20474;-76
2023/06/03 14:26:44;;;;;;;0.80;0.30;;;24.30;1.00;;;;;;4936862;29;20549;-75
2023/06/03 14:29:12;;;;;;;0.70;0.10;;;24.30;1.00;;;;;;4936407;29;20586;-73
2023/06/03 14:31:41;;;;;;;0.70;0.20;;;24.50;1.00;;;;;;4936140;29;20824;-73
2023/06/03 14:34:10;;;;;;;0.70;0.20;;;24.50;1.00;;;;;;4927506;29;20480;-75
2023/06/03 14:36:38;;;;;;;1.70;1.43;;;24.50;1.00;;;;;;4936320;29;20454;-77
2023/06/03 14:39:06;;;;;;;1.20;0.70;;;24.60;1.00;;;;;;4936521;29;20516;-75
2023/06/03 14:41:35;;;;;;;0.70;0.20;;;24.60;1.00;;;;;;4954618;29;20450;-76
2023/06/03 14:44:03;;;;;;;0.70;0.13;;;24.70;1.00;;;;;;4944455;29;20501;-76
2023/06/03 14:46:31;;;;;;;0.70;0.20;;;24.70;1.00;;;;;;4937262;29;20548;-75
2023/06/03 14:48:59;;;;;;;0.70;0.10;;;24.80;1.00;;;;;;4939885;29;20514;-74
2023/06/03 14:51:28;;;;;;;2.40;2.10;;;;;;;;;;4941304;29;20459;-75
2023/06/03 14:53:57;;;;;;;0.87;0.67;;;24.90;1.00;;;;;;4937692;29;20542;-74
2023/06/03 14:56:25;;;;;;;0.70;0.20;;;25.00;1.00;;;;;;4935625;29;20553;-76
2023/06/03 14:58:54;;;;;;;0.70;0.20;;;25.00;1.00;;;;;;4936615;29;20538;-75
2023/06/03 15:01:26;;;;;;;0.80;0.30;;;25.10;1.00;;;;;;4927894;29;20455;-75
2023/06/03 15:03:55;;;;;;;0.80;0.30;;;25.20;1.00;;;;;;4936581;29;21017;-76
2023/06/03 15:06:23;;;;;;;0.70;0.10;;;25.10;1.00;;;;;;4933696;29;20459;-75
2023/06/03 15:08:54;;;;;;;1.43;0.83;;;25.20;1.00;;;;;;4938512;29;20525;-76
2023/06/03 15:11:22;;;;;;;0.70;0.20;;;25.20;1.00;;;;;;4937514;29;20453;-76
2023/06/03 15:13:50;;;;;;;1.13;0.63;;;25.20;1.00;;;;;;4938181;29;20471;-75
2023/06/03 15:16:17;;;;;;;0.70;0.17;;;25.00;1.00;;;;;;4936771;29;20450;-75
2023/06/03 15:18:45;;;;;;;0.70;0.10;;;25.00;1.00;;;;;;4938490;29;20467;-74
2023/06/03 15:21:14;;;;;;;1.53;0.40;;;24.90;1.00;;;;;;4938782;29;20447;-74
2023/06/03 15:23:42;;;;;;;1.17;0.40;;;24.80;1.00;;;;;;4938499;29;20466;-75
2023/06/03 15:26:11;;;;;;;0.70;0.20;;;24.90;1.00;;;;;;4937886;29;20833;-76
2023/06/03 15:28:39;;;;;;;0.70;0.20;;;25.10;1.00;;;;;;4927680;29;20533;-75
2023/06/03 15:31:07;;;;;;;1.27;0.40;;;25.10;1.00;;;;;;4939374;29;20447;-74
2023/06/03 15:33:35;;;;;;;0.70;0.20;;;25.10;1.00;;;;;;4939293;29;20969;-74
2023/06/03 15:36:04;;;;;;;0.70;0.10;;;25.10;1.00;;;;;;4938875;29;20459;-74
2023/06/03 15:38:32;;;;;;;0.70;0.20;;;25.20;1.00;;;;;;4944462;29;20454;-76
2023/06/03 15:41:00;;;;;;;0.70;0.10;;;25.30;1.00;;;;;;4947031;29;20457;-75
2023/06/03 15:43:30;;;;;;;0.70;0.20;;;25.60;1.00;;;;;;4942189;29;20482;-71
2023/06/03 15:45:58;;;;;;;0.80;0.63;;;25.60;1.00;;;;;;4939712;29;20447;-73
2023/06/03 15:48:26;;;;;;;0.70;0.30;;;25.70;1.00;;;;;;4945245;29;20453;-78
2023/06/03 15:50:54;;;;;;;0.70;0.20;;;25.80;1.00;;;;;;4943561;29;20545;-77
2023/06/03 15:53:22;;;;;;;0.70;0.10;;;26.00;1.00;;;;;;4928225;29;21246;-77
2023/06/03 15:55:52;;;;;;;0.70;0.10;;;26.10;1.00;;;;;;4942727;29;20451;-77
2023/06/03 15:58:20;;;;;;;1.10;0.53;;;26.20;1.00;;;;;;4938374;29;20542;-75
2023/06/03 16:00:50;;;;;;;1.33;0.60;;;26.00;1.00;;;;;;4941336;29;20537;-76
2023/06/03 16:03:18;;;;;;;0.90;0.53;;;25.90;1.00;;;;;;4952728;29;20463;-81
2023/06/03 16:05:47;;;;;;;7.80;7.20;;;;;;;;;;4959681;29;20467;-82
2023/06/03 16:08:15;;;;;;;0.70;0.20;;;;;;;;;;4959749;29;20494;-80
2023/06/03 16:10:43;;;;;;;0.90;0.40;;;25.90;1.00;;;;;;4957087;29;20485;-82
2023/06/03 16:15:46;;;;;;;0.70;0.10;;;25.90;1.00;;;;;;4931887;29;20469;-78
2023/06/03 16:18:15;;;;;;;2.40;2.20;;;26.00;1.00;;;;;;4941220;29;20448;-77
2023/06/03 16:20:43;;;;;;;0.70;0.20;;;26.30;1.00;;;;;;4941001;29;20459;-77
2023/06/03 16:23:11;;;;;;;0.70;0.20;;;26.50;1.00;;;;;;4939420;29;20992;-79
2023/06/03 16:25:39;;;;;;;0.70;0.10;;;26.50;1.00;;;;;;4942061;29;20455;-77
2023/06/03 16:28:07;;;;;;;0.70;0.20;;;26.40;1.00;;;;;;4938431;29;20511;-78
2023/06/03 16:30:36;;;;;;;0.70;0.20;;;26.20;1.00;;;;;;4938614;29;20487;-76
2023/06/03 16:33:04;;;;;;;0.70;0.20;;;26.20;1.00;;;;;;4937981;29;20455;-78
2023/06/03 16:35:34;;;;;;;0.70;0.20;;;;;;;;;;4948000;29;20472;-77
2023/06/03 16:38:02;;;;;;;0.70;0.20;;;26.20;1.00;;;;;;4956773;29;20479;-77
2023/06/03 16:40:30;;;;;;;0.80;0.30;;;26.40;1.00;;;;;;4959021;29;20439;-77
2023/06/03 16:42:58;;;;;;;0.70;0.20;;;26.30;1.00;;;;;;4934520;29;20453;-78
2023/06/03 16:45:26;;;;;;;0.70;0.20;;;26.40;1.00;;;;;;4932688;29;20508;-77
2023/06/03 16:47:54;;;;;;;1.50;1.40;;;26.50;1.00;;;;;;4933049;29;20966;-79
2023/06/03 16:50:23;;;;;;;0.70;0.10;;;26.50;1.00;;;;;;4932838;29;20503;-80
2023/06/03 16:52:52;;;;;;;0.70;0.20;;;26.50;1.00;;;;;;4926752;29;20472;-79
2023/06/03 16:55:21;;;;;;;0.70;0.20;;;26.70;1.00;;;;;;4925091;29;20468;-77
2023/06/03 16:57:49;;;;;;;1.73;0.73;;;26.80;1.00;;;;;;4923094;29;20452;-79
2023/06/03 17:00:18;;;;;;;0.70;0.20;;;;;;;;;;4922425;29;20460;-79
2023/06/03 17:02:46;;;;;;;0.70;0.10;;;26.40;1.00;;;;;;4922421;29;20816;-79
2023/06/03 17:05:14;;;;;;;0.70;0.20;;;26.20;1.00;;;;;;4923633;29;20579;-78
2023/06/03 17:07:42;;;;;;;0.70;0.20;;;26.20;1.00;;;;;;4921757;29;20551;-81
2023/06/03 17:10:12;;;;;;;0.77;0.37;;;26.30;1.00;;;;;;4925837;29;20484;-80
2023/06/03 17:12:40;;;;;;;0.70;0.20;;;26.40;1.00;;;;;;4925344;29;20467;-80
2023/06/03 17:15:08;;;;;;;0.70;0.10;;;26.50;1.00;;;;;;4919352;29;20539;-80
2023/06/03 17:17:36;;;;;;;0.80;0.30;;;26.60;1.00;;;;;;4905420;29;20491;-78
2023/06/03 17:20:05;;;;;;;1.77;1.43;;;26.70;1.00;;;;;;4922573;29;20453;-78